createdAt,value
2023-05-04T00:00:55.815Z,4.32
2023-05-04T00:03:22.748Z,4.45
2023-05-04T00:05:49.299Z,4.30
2023-05-04T00:08:15.734Z,4.95
2023-05-04T00:10:42.191Z,4.35
2023-05-04T00:13:14.291Z,4.68
2023-05-04T00:15:41.399Z,4.47
2023-05-04T00:18:08.501Z,4.55
2023-05-04T00:20:35.082Z,4.63
2023-05-04T00:23:01.555Z,4.35
2023-05-04T00:25:28.209Z,4.05
2023-05-04T00:27:54.692Z,4.13
2023-05-04T00:30:24.059Z,4.72
2023-05-04T00:32:50.653Z,4.25
2023-05-04T00:35:17.257Z,4.25
2023-05-04T00:37:45.170Z,4.53
2023-05-04T00:40:12.387Z,4.35
2023-05-04T00:42:38.853Z,4.57
2023-05-04T00:45:05.862Z,4.78
2023-05-04T00:47:39.076Z,4.80
2023-05-04T00:50:06.833Z,4.30
2023-05-04T00:52:37.453Z,4.30
2023-05-04T00:55:04.364Z,4.53
2023-05-04T00:57:30.937Z,4.78
2023-05-04T00:59:57.852Z,4.32
2023-05-04T01:02:24.379Z,4.43
2023-05-04T01:04:51.012Z,4.80
2023-05-04T01:07:30.388Z,4.82
2023-05-04T01:10:30.651Z,4.75
2023-05-04T01:13:06.243Z,4.50
2023-05-04T01:15:34.463Z,4.80
2023-05-04T01:18:01.764Z,4.65
2023-05-04T01:20:28.627Z,4.68
2023-05-04T01:22:56.096Z,4.75
2023-05-04T01:25:30.383Z,4.45
2023-05-04T01:28:02.337Z,4.53
2023-05-04T01:33:10.806Z,4.78
2023-05-04T01:35:37.647Z,4.70
2023-05-04T01:38:04.366Z,4.10
2023-05-04T01:40:30.867Z,4.68
2023-05-04T01:42:57.477Z,4.10
2023-05-04T01:45:24.068Z,4.15
2023-05-04T01:47:50.895Z,4.63
2023-05-04T01:50:17.432Z,4.10
2023-05-04T01:52:43.922Z,3.80
2023-05-04T01:55:10.434Z,4.18
2023-05-04T01:57:38.632Z,4.10
2023-05-04T02:00:05.801Z,4.10
2023-05-04T02:02:32.710Z,3.58
2023-05-04T02:04:59.277Z,4.00
2023-05-04T02:07:25.858Z,3.88
2023-05-04T02:09:52.466Z,4.07
2023-05-04T02:12:18.986Z,4.40
2023-05-04T02:14:45.450Z,3.95
2023-05-04T02:17:11.961Z,3.92
2023-05-04T02:19:38.523Z,4.03
2023-05-04T02:22:04.960Z,4.05
2023-05-04T02:24:31.491Z,4.10
2023-05-04T02:26:58.652Z,3.75
2023-05-04T02:29:25.246Z,3.60
2023-05-04T02:31:51.756Z,3.92
2023-05-04T02:34:18.345Z,4.10
2023-05-04T02:36:44.813Z,3.92
2023-05-04T02:39:11.376Z,4.25
2023-05-04T02:41:37.807Z,4.10
2023-05-04T02:44:04.495Z,3.95
2023-05-04T02:46:32.394Z,4.18
2023-05-04T02:48:58.895Z,4.55
2023-05-04T02:51:25.381Z,4.22
2023-05-04T02:53:54.767Z,4.05
2023-05-04T02:56:21.296Z,4.30
2023-05-04T02:58:47.840Z,3.85
2023-05-04T03:01:14.319Z,4.20
2023-05-04T03:03:40.866Z,4.07
2023-05-04T03:06:07.468Z,4.10
2023-05-04T03:08:33.950Z,3.88
2023-05-04T03:11:00.405Z,4.20
2023-05-04T03:13:26.951Z,3.95
2023-05-04T03:15:53.446Z,4.10
2023-05-04T03:18:19.983Z,4.10
2023-05-04T03:20:46.440Z,4.13
2023-05-04T03:23:12.913Z,4.15
2023-05-04T03:25:39.402Z,4.45
2023-05-04T03:28:05.903Z,4.40
2023-05-04T03:30:32.389Z,4.10
2023-05-04T03:32:58.963Z,4.50
2023-05-04T03:35:25.497Z,3.95
2023-05-04T03:37:51.972Z,4.68
2023-05-04T03:40:22.854Z,4.53
2023-05-04T03:42:49.565Z,4.70
2023-05-04T03:45:16.163Z,4.38
2023-05-04T03:47:45.659Z,4.68
2023-05-04T03:50:13.198Z,4.75
2023-05-04T03:52:39.736Z,4.50
2023-05-04T03:55:07.068Z,4.60
2023-05-04T03:57:33.554Z,4.65
2023-05-04T04:00:00.057Z,4.60
2023-05-04T04:02:30.656Z,4.88
2023-05-04T04:04:57.645Z,4.65
2023-05-04T04:07:24.293Z,4.32
2023-05-04T04:09:52.309Z,4.90
2023-05-04T04:12:20.297Z,5.03
2023-05-04T04:14:48.504Z,4.63
2023-05-04T04:17:15.243Z,4.80
2023-05-04T04:19:41.730Z,5.28
2023-05-04T04:22:08.240Z,5.30
2023-05-04T04:24:34.733Z,5.30
2023-05-04T04:27:01.575Z,5.35
2023-05-04T04:29:28.212Z,5.57
2023-05-04T04:31:54.825Z,5.70
2023-05-04T04:34:22.297Z,5.20
2023-05-04T04:36:48.969Z,5.13
2023-05-04T04:39:16.588Z,5.82
2023-05-04T04:41:43.053Z,5.20
2023-05-04T04:44:09.537Z,5.13
2023-05-04T04:46:36.661Z,5.07
2023-05-04T04:49:03.296Z,5.40
2023-05-04T04:51:29.854Z,5.47
2023-05-04T04:53:56.340Z,5.60
2023-05-04T04:56:23.312Z,5.18
2023-05-04T04:58:50.821Z,5.72
2023-05-04T05:01:18.840Z,5.72
2023-05-04T05:03:45.827Z,5.57
2023-05-04T05:06:16.006Z,5.50
2023-05-04T05:08:43.973Z,5.85
2023-05-04T05:11:11.188Z,5.30
2023-05-04T05:13:37.704Z,5.35
2023-05-04T05:16:04.513Z,5.43
2023-05-04T05:18:31.237Z,5.53
2023-05-04T05:20:57.888Z,5.60
2023-05-04T05:23:24.411Z,5.80
2023-05-04T05:25:51.581Z,5.78
2023-05-04T05:28:18.549Z,5.82
2023-05-04T05:30:45.557Z,6.55
2023-05-04T05:33:12.189Z,5.97
2023-05-04T05:35:38.685Z,5.50
2023-05-04T05:38:05.181Z,6.07
2023-05-04T05:40:32.071Z,5.85
2023-05-04T05:42:58.525Z,6.65
2023-05-04T05:45:25.004Z,6.40
2023-05-04T05:47:51.866Z,6.28
2023-05-04T05:50:18.961Z,6.43
2023-05-04T05:52:45.729Z,6.60
2023-05-04T05:55:12.200Z,6.35
2023-05-04T05:57:38.676Z,6.18
2023-05-04T06:00:06.112Z,6.13
2023-05-04T06:02:35.793Z,6.60
2023-05-04T06:05:02.535Z,6.15
2023-05-04T06:07:29.123Z,6.68
2023-05-04T06:09:56.472Z,6.22
2023-05-04T06:12:23.363Z,6.10
2023-05-04T06:14:49.837Z,6.57
2023-05-04T06:17:17.473Z,5.45
2023-05-04T06:19:45.921Z,6.80
2023-05-04T06:22:12.635Z,5.80
2023-05-04T06:24:39.085Z,6.07
2023-05-04T06:27:05.553Z,5.88
2023-05-04T06:29:32.120Z,6.30
2023-05-04T06:31:59.026Z,6.93
2023-05-04T06:34:25.560Z,6.82
2023-05-04T06:36:52.084Z,6.93
2023-05-04T06:39:18.640Z,7.05
2023-05-04T06:41:45.151Z,6.70
2023-05-04T06:44:11.694Z,6.97
2023-05-04T06:46:38.238Z,6.57
2023-05-04T06:49:05.304Z,5.78
2023-05-04T06:51:32.065Z,6.28
2023-05-04T06:54:00.270Z,6.10
2023-05-04T06:56:26.775Z,6.05
2023-05-04T06:58:53.309Z,5.47
2023-05-04T07:01:19.803Z,5.95
2023-05-04T07:03:46.393Z,6.13
2023-05-04T07:06:12.927Z,5.57
2023-05-04T07:08:42.222Z,5.63
2023-05-04T07:11:10.198Z,5.85
2023-05-04T07:13:39.402Z,5.72
2023-05-04T07:16:09.286Z,5.40
2023-05-04T07:18:36.230Z,5.88
2023-05-04T07:21:21.871Z,5.85
2023-05-04T07:23:49.261Z,6.05
2023-05-04T07:26:15.944Z,5.63
2023-05-04T07:28:43.971Z,5.50
2023-05-04T07:31:12.856Z,5.97
2023-05-04T07:33:39.842Z,5.90
2023-05-04T07:36:06.824Z,6.32
2023-05-04T07:38:33.404Z,6.15
2023-05-04T07:41:02.875Z,6.22
2023-05-04T07:43:29.463Z,6.18
2023-05-04T07:45:56.021Z,5.85
2023-05-04T07:48:24.626Z,6.00
2023-05-04T07:50:52.740Z,5.70
2023-05-04T07:53:20.717Z,6.78
2023-05-04T07:55:48.304Z,6.25
2023-05-04T07:58:16.563Z,6.03
2023-05-04T08:00:43.354Z,5.60
2023-05-04T08:03:10.185Z,5.47
2023-05-04T08:05:36.797Z,5.50
2023-05-04T08:08:03.345Z,6.07
2023-05-04T08:10:29.960Z,5.40
2023-05-04T08:12:56.935Z,4.82
2023-05-04T08:15:23.573Z,5.30
2023-05-04T08:17:50.104Z,5.80
2023-05-04T08:20:16.981Z,5.18
2023-05-04T08:22:43.446Z,5.72
2023-05-04T08:25:10.169Z,5.35
2023-05-04T08:27:36.657Z,4.85
2023-05-04T08:30:03.369Z,4.47
2023-05-04T08:32:31.829Z,5.40
2023-05-04T08:34:59.988Z,4.88
2023-05-04T08:37:26.529Z,4.75
2023-05-04T08:39:53.204Z,4.97
2023-05-04T08:42:32.916Z,4.70
2023-05-04T08:45:03.207Z,4.70
2023-05-04T08:47:30.028Z,4.85
2023-05-04T08:49:56.916Z,4.45
2023-05-04T08:52:25.387Z,4.85
2023-05-04T08:54:56.968Z,4.60
2023-05-04T08:57:25.151Z,4.45
2023-05-04T08:59:55.830Z,4.60
2023-05-04T09:02:23.640Z,4.13
2023-05-04T09:04:53.994Z,4.65
2023-05-04T09:07:22.006Z,4.70
2023-05-04T09:09:50.924Z,4.68
2023-05-04T09:12:18.219Z,4.97
2023-05-04T09:14:46.556Z,4.20
2023-05-04T09:17:16.336Z,4.38
2023-05-04T09:19:46.023Z,4.28
2023-05-04T09:22:17.252Z,4.22
2023-05-04T09:24:45.263Z,4.90
2023-05-04T09:27:13.362Z,4.95
2023-05-04T09:29:42.343Z,4.85
2023-05-04T09:32:14.340Z,4.25
2023-05-04T09:34:51.540Z,3.95
2023-05-04T09:37:22.229Z,3.88
2023-05-04T09:39:57.557Z,3.70
2023-05-04T09:42:25.170Z,4.35
2023-05-04T09:45:03.133Z,3.97
2023-05-04T09:47:37.645Z,4.03
2023-05-04T09:50:25.472Z,3.83
2023-05-04T09:52:52.154Z,4.28
2023-05-04T09:55:20.465Z,4.60
2023-05-04T09:57:49.400Z,4.15
2023-05-04T10:00:17.870Z,4.65
2023-05-04T10:02:46.556Z,3.65
2023-05-04T10:05:18.151Z,4.20
2023-05-04T10:07:45.236Z,4.43
2023-05-04T10:10:13.277Z,4.65
2023-05-04T10:12:39.868Z,4.85
2023-05-04T10:15:10.923Z,4.47
2023-05-04T10:18:01.536Z,4.33
2023-05-04T10:21:06.459Z,5.10
2023-05-04T10:23:51.365Z,4.82
2023-05-04T10:26:59.750Z,4.78
2023-05-04T10:29:29.189Z,4.25
2023-05-04T10:31:56.963Z,4.30
2023-05-04T10:34:30.000Z,4.75
2023-05-04T10:36:58.052Z,4.05
2023-05-04T10:39:27.636Z,4.30
2023-05-04T10:42:01.903Z,4.88
2023-05-04T10:44:29.627Z,4.60
2023-05-04T10:47:07.456Z,4.75
2023-05-04T10:49:35.163Z,4.60
2023-05-04T10:52:09.780Z,4.40
2023-05-04T10:54:37.485Z,4.55
2023-05-04T10:57:17.656Z,4.35
2023-05-04T10:59:56.432Z,4.25
2023-05-04T11:02:27.226Z,5.22
2023-05-04T11:05:09.374Z,4.47
2023-05-04T11:10:09.668Z,4.72
2023-05-04T11:12:38.142Z,4.75
2023-05-04T11:15:09.183Z,4.88
2023-05-04T11:17:48.878Z,4.80
2023-05-04T11:20:26.341Z,4.75
2023-05-04T11:22:54.208Z,5.30
2023-05-04T11:25:30.836Z,4.72
2023-05-04T11:27:58.741Z,4.90
2023-05-04T11:30:35.740Z,5.28
2023-05-04T11:33:05.225Z,5.00
2023-05-04T11:35:32.275Z,5.22
2023-05-04T11:37:59.121Z,5.32
2023-05-04T11:40:26.896Z,4.80
2023-05-04T11:42:56.884Z,5.40
2023-05-04T11:45:27.015Z,5.43
2023-05-04T11:47:56.504Z,5.57
2023-05-04T11:50:25.118Z,5.22
2023-05-04T11:52:51.997Z,5.00
2023-05-04T11:55:30.470Z,5.72
2023-05-04T11:58:08.026Z,5.22
2023-05-04T12:00:39.596Z,5.10
2023-05-04T12:05:35.775Z,5.80
2023-05-04T12:08:03.465Z,5.85
2023-05-04T12:10:33.330Z,5.28
2023-05-04T12:13:00.064Z,4.82
2023-05-04T12:15:36.471Z,4.90
2023-05-04T12:18:03.573Z,5.45
2023-05-04T12:20:30.919Z,4.97
2023-05-04T12:22:58.171Z,5.45
2023-05-04T12:25:25.103Z,5.63
2023-05-04T12:27:51.989Z,5.22
2023-05-04T12:30:18.549Z,5.35
2023-05-04T12:32:45.186Z,5.30
2023-05-04T12:35:11.900Z,5.68
2023-05-04T12:37:38.705Z,5.75
2023-05-04T12:40:17.302Z,5.30
2023-05-04T12:42:51.474Z,5.20
2023-05-04T12:45:18.565Z,5.22
2023-05-04T12:47:45.187Z,5.57
2023-05-04T12:50:12.120Z,5.93
2023-05-04T12:52:43.431Z,5.53
2023-05-04T12:55:09.925Z,6.35
2023-05-04T12:57:36.473Z,5.35
2023-05-04T13:00:05.987Z,6.07
2023-05-04T13:02:32.542Z,6.50
2023-05-04T13:04:59.028Z,6.05
2023-05-04T13:07:25.519Z,5.75
2023-05-04T13:09:55.282Z,5.47
2023-05-04T13:12:21.790Z,5.32
2023-05-04T13:14:48.293Z,5.35
2023-05-04T13:17:15.129Z,5.75
2023-05-04T13:19:41.613Z,6.20
2023-05-04T13:22:08.091Z,5.40
2023-05-04T13:24:34.557Z,5.70
2023-05-04T13:27:01.056Z,5.82
2023-05-04T13:29:27.624Z,5.68
2023-05-04T13:31:54.231Z,6.75
2023-05-04T13:34:20.941Z,6.03
2023-05-04T13:36:47.912Z,5.85
2023-05-04T13:39:14.435Z,5.63
2023-05-04T13:41:41.091Z,5.40
2023-05-04T13:44:10.291Z,5.82
2023-05-04T13:46:36.845Z,6.47
2023-05-04T13:49:03.383Z,5.88
2023-05-04T13:51:29.885Z,6.15
2023-05-04T13:53:56.372Z,6.40
2023-05-04T13:56:23.260Z,5.85
2023-05-04T13:58:49.975Z,6.40
2023-05-04T14:01:16.580Z,6.50
2023-05-04T14:03:43.120Z,5.85
2023-05-04T14:06:09.551Z,5.50
2023-05-04T14:08:36.086Z,5.40
2023-05-04T14:11:03.024Z,5.47
2023-05-04T14:13:29.510Z,5.90
2023-05-04T14:15:55.957Z,5.60
2023-05-04T14:18:23.388Z,5.53
2023-05-04T14:20:49.947Z,5.18
2023-05-04T14:23:16.448Z,5.07
2023-05-04T14:25:50.385Z,5.55
2023-05-04T14:28:16.870Z,5.35
2023-05-04T14:30:43.307Z,4.85
2023-05-04T14:33:12.677Z,5.60
2023-05-04T14:35:42.738Z,5.20
2023-05-04T14:38:10.152Z,4.40
2023-05-04T14:40:36.648Z,4.82
2023-05-04T14:43:03.212Z,5.38
2023-05-04T14:45:29.862Z,5.53
2023-05-04T14:47:56.433Z,5.57
2023-05-04T14:50:22.977Z,4.82
2023-05-04T14:52:49.467Z,5.65
2023-05-04T14:55:15.969Z,5.55
2023-05-04T14:57:42.509Z,4.97
2023-05-04T15:00:10.158Z,4.78
2023-05-04T15:02:38.692Z,4.82
2023-05-04T15:05:05.845Z,4.80
2023-05-04T15:07:32.342Z,4.68
2023-05-04T15:09:58.836Z,4.88
2023-05-04T15:12:26.353Z,5.28
2023-05-04T15:14:52.942Z,4.80
2023-05-04T15:17:20.270Z,4.90
2023-05-04T15:19:46.854Z,5.05
2023-05-04T15:22:13.290Z,5.38
2023-05-04T15:24:39.772Z,5.10
2023-05-04T15:27:06.359Z,5.05
2023-05-04T15:29:32.921Z,5.28
2023-05-04T15:31:59.478Z,5.30
2023-05-04T15:34:26.090Z,5.13
2023-05-04T15:36:52.658Z,4.78
2023-05-04T15:39:19.201Z,5.05
2023-05-04T15:41:45.698Z,5.05
2023-05-04T15:44:12.162Z,5.03
2023-05-04T15:46:38.711Z,5.22
2023-05-04T15:49:05.467Z,4.68
2023-05-04T15:51:32.136Z,5.10
2023-05-04T15:53:58.847Z,4.70
2023-05-04T15:56:25.357Z,5.28
2023-05-04T15:58:51.907Z,4.80
2023-05-04T16:01:18.517Z,5.35
2023-05-04T16:03:45.160Z,5.75
2023-05-04T16:06:12.679Z,5.32
2023-05-04T16:08:39.296Z,6.03
2023-05-04T16:11:07.555Z,5.20
2023-05-04T16:13:34.571Z,5.10
2023-05-04T16:16:01.176Z,5.30
2023-05-04T16:18:27.647Z,4.72
2023-05-04T16:20:54.722Z,4.47
2023-05-04T16:23:21.257Z,5.88
2023-05-04T16:25:47.727Z,5.25
2023-05-04T16:28:14.188Z,5.28
2023-05-04T16:30:45.628Z,5.97
2023-05-04T16:33:12.797Z,5.40
2023-05-04T16:35:39.343Z,5.47
2023-05-04T16:38:06.085Z,5.75
2023-05-04T16:40:32.825Z,5.78
2023-05-04T16:42:59.567Z,5.32
2023-05-04T16:45:31.199Z,5.20
2023-05-04T16:47:58.670Z,6.00
2023-05-04T16:50:25.399Z,5.85
2023-05-04T16:52:51.949Z,5.22
2023-05-04T16:55:18.934Z,4.90
2023-05-04T16:57:46.510Z,5.45
2023-05-04T17:00:13.881Z,5.50
2023-05-04T17:02:40.458Z,5.20
2023-05-04T17:05:10.054Z,5.57
2023-05-04T17:07:41.018Z,5.30
2023-05-04T17:10:08.479Z,5.03
2023-05-04T17:12:35.887Z,5.60
2023-05-04T17:15:03.481Z,5.30
2023-05-04T17:17:30.077Z,5.30
2023-05-04T17:19:56.561Z,5.38
2023-05-04T17:22:25.112Z,4.63
2023-05-04T17:24:52.368Z,5.30
2023-05-04T17:27:18.967Z,5.47
2023-05-04T17:29:45.861Z,4.97
2023-05-04T17:32:15.240Z,5.68
2023-05-04T17:34:41.852Z,5.68
2023-05-04T17:37:08.401Z,4.70
2023-05-04T17:39:34.895Z,4.57
2023-05-04T17:42:01.712Z,5.63
2023-05-04T17:44:29.783Z,4.90
2023-05-04T17:46:56.266Z,5.13
2023-05-04T17:49:22.725Z,5.03
2023-05-04T17:51:49.381Z,4.88
2023-05-04T17:54:16.495Z,5.00
2023-05-04T17:56:43.630Z,4.80
2023-05-04T17:59:10.154Z,5.22
2023-05-04T18:01:36.644Z,4.68
2023-05-04T18:04:04.125Z,4.97
2023-05-04T18:06:32.528Z,4.90
2023-05-04T18:09:00.276Z,5.25
2023-05-04T18:11:26.782Z,5.18
2023-05-04T18:13:53.592Z,4.70
2023-05-04T18:16:20.086Z,5.03
2023-05-04T18:18:46.579Z,4.97
2023-05-04T18:21:13.059Z,4.97
2023-05-04T18:23:39.538Z,4.70
2023-05-04T18:26:06.165Z,4.78
2023-05-04T18:28:32.708Z,5.15
2023-05-04T18:30:59.407Z,4.53
2023-05-04T18:33:25.915Z,4.63
2023-05-04T18:35:52.556Z,5.30
2023-05-04T18:38:19.042Z,4.93
2023-05-04T18:40:45.506Z,5.00
2023-05-04T18:43:12.202Z,4.80
2023-05-04T18:45:41.673Z,4.72
2023-05-04T18:48:11.107Z,4.90
2023-05-04T18:50:37.665Z,4.38
2023-05-04T18:53:05.710Z,5.30
2023-05-04T18:55:32.156Z,5.35
2023-05-04T18:58:01.023Z,5.05
2023-05-04T19:00:27.589Z,5.70
2023-05-04T19:02:54.155Z,5.05
2023-05-04T19:05:20.698Z,4.72
2023-05-04T19:07:47.173Z,5.18
2023-05-04T19:10:13.687Z,5.00
2023-05-04T19:12:40.158Z,5.47
2023-05-04T19:15:07.216Z,5.05
2023-05-04T19:17:34.348Z,5.13
2023-05-04T19:20:01.138Z,5.15
2023-05-04T19:22:27.602Z,4.32
2023-05-04T19:24:55.474Z,5.20
2023-05-04T19:27:22.086Z,5.40
2023-05-04T19:29:48.589Z,4.55
2023-05-04T19:32:23.753Z,4.97
2023-05-04T19:34:51.113Z,5.13
2023-05-04T19:37:17.713Z,5.30
2023-05-04T19:39:44.234Z,4.53
2023-05-04T19:42:10.728Z,5.22
2023-05-04T19:44:37.297Z,5.70
2023-05-04T19:47:03.829Z,5.55
2023-05-04T19:49:30.321Z,5.55
2023-05-04T19:51:59.598Z,5.50
2023-05-04T19:54:26.138Z,5.07
2023-05-04T19:56:53.036Z,5.47
2023-05-04T19:59:19.643Z,5.60
2023-05-04T20:01:46.204Z,5.55
2023-05-04T20:04:12.792Z,5.45
2023-05-04T20:06:39.337Z,5.38
2023-05-04T20:09:06.069Z,5.88
2023-05-04T20:11:32.610Z,5.35
2023-05-04T20:13:59.849Z,5.50
2023-05-04T20:16:29.858Z,5.40
2023-05-04T20:18:56.368Z,5.05
2023-05-04T20:21:23.145Z,5.15
2023-05-04T20:23:49.613Z,5.20
2023-05-04T20:26:16.446Z,5.13
2023-05-04T20:28:43.004Z,4.72
2023-05-04T20:31:09.687Z,5.10
2023-05-04T20:33:36.767Z,5.35
2023-05-04T20:36:06.029Z,5.15
2023-05-04T20:38:32.764Z,4.55
2023-05-04T20:41:09.147Z,5.57
2023-05-04T20:43:38.996Z,4.95
2023-05-04T20:46:05.488Z,5.80
2023-05-04T20:48:31.955Z,5.53
2023-05-04T20:51:10.480Z,5.10
2023-05-04T20:53:40.474Z,6.10
2023-05-04T20:56:06.954Z,5.85
2023-05-04T20:58:33.468Z,6.53
2023-05-04T21:01:04.001Z,6.38
2023-05-04T21:03:30.997Z,6.00
2023-05-04T21:05:57.980Z,6.38
2023-05-04T21:08:24.790Z,6.18
2023-05-04T21:10:54.543Z,6.35
2023-05-04T21:13:21.020Z,6.18
2023-05-04T21:15:47.659Z,5.90
2023-05-04T21:18:14.172Z,5.60
2023-05-04T21:20:41.447Z,6.10
2023-05-04T21:23:08.001Z,6.22
2023-05-04T21:25:34.970Z,6.03
2023-05-04T21:28:01.429Z,5.80
2023-05-04T21:30:27.948Z,6.25
2023-05-04T21:32:54.567Z,5.88
2023-05-04T21:35:21.899Z,6.35
2023-05-04T21:37:48.796Z,6.20
2023-05-04T21:40:15.462Z,6.10
2023-05-04T21:42:42.128Z,6.03
2023-05-04T21:45:08.792Z,6.10
2023-05-04T21:47:36.272Z,6.05
2023-05-04T21:50:03.961Z,6.47
2023-05-04T21:52:30.786Z,6.80
2023-05-04T21:54:57.426Z,5.90
2023-05-04T21:57:25.320Z,6.03
2023-05-04T21:59:51.882Z,6.75
2023-05-04T22:02:18.512Z,7.03
2023-05-04T22:04:45.444Z,6.22
2023-05-04T22:07:12.130Z,6.30
2023-05-04T22:09:38.917Z,6.88
2023-05-04T22:12:05.836Z,7.03
2023-05-04T22:14:32.344Z,6.70
2023-05-04T22:16:59.556Z,6.70
2023-05-04T22:19:26.356Z,7.40
2023-05-04T22:21:54.894Z,6.78
2023-05-04T22:24:21.377Z,6.57
2023-05-04T22:26:47.913Z,7.05
2023-05-04T22:29:14.357Z,6.68
2023-05-04T22:31:40.826Z,6.68
2023-05-04T22:34:07.269Z,7.22
2023-05-04T22:36:33.768Z,7.05
2023-05-04T22:39:00.232Z,6.53
2023-05-04T22:41:27.100Z,6.40
2023-05-04T22:43:53.549Z,6.53
2023-05-04T22:46:20.135Z,6.75
2023-05-04T22:48:46.735Z,7.03
2023-05-04T22:51:14.290Z,6.53
2023-05-04T22:53:40.900Z,6.70
2023-05-04T22:56:07.988Z,6.78
2023-05-04T22:58:34.484Z,6.28
2023-05-04T23:01:01.030Z,6.55
2023-05-04T23:03:27.725Z,6.25
2023-05-04T23:05:54.301Z,7.03
2023-05-04T23:08:20.845Z,6.28
2023-05-04T23:10:48.326Z,6.70
2023-05-04T23:13:14.888Z,6.88
2023-05-04T23:15:41.452Z,7.15
2023-05-04T23:18:08.053Z,6.32
2023-05-04T23:20:34.664Z,7.22
2023-05-04T23:23:01.240Z,7.00
2023-05-04T23:25:27.737Z,6.50
2023-05-04T23:27:54.399Z,6.25
2023-05-04T23:30:20.850Z,6.70
2023-05-04T23:32:47.346Z,6.82
2023-05-04T23:35:13.807Z,7.25
2023-05-04T23:37:40.447Z,6.65
2023-05-04T23:40:08.479Z,6.40
2023-05-04T23:42:35.262Z,6.95
2023-05-04T23:45:01.744Z,6.43
2023-05-04T23:47:28.257Z,6.43
2023-05-04T23:49:54.746Z,6.65
2023-05-04T23:52:21.293Z,6.63
2023-05-04T23:54:52.500Z,6.70
2023-05-04T23:57:18.972Z,6.90
2023-05-04T23:59:45.438Z,7.10
